Time;durP1;ratioP1;P1;durP2;ratioP2;P2;SDS_P1;SDS_P2;PMS_P1;PMS_P2;Temp;Humidity;BMP_temperature;BMP_pressure;BME280_temperature;BME280_humidity;BME280_pressure;Samples;Min_cycle;Max_cycle;Signal;HPM_P1;HPM_P2
2022/05/14 00:00:27;;;;;;;8.27;3.93;;;13.80;80.00;;;;;;5055074;28;20469;-75
2022/05/14 00:02:55;;;;;;;13.33;4.40;;;13.80;80.00;;;;;;5057043;28;20430;-77
2022/05/14 00:05:23;;;;;;;5.70;3.50;;;13.70;79.60;;;;;;5049864;28;20471;-75
2022/05/14 00:07:51;;;;;;;16.20;5.00;;;13.60;80.00;;;;;;5055896;28;20929;-75
2022/05/14 00:10:19;;;;;;;7.17;3.23;;;13.60;80.50;;;;;;5056965;28;20468;-76
2022/05/14 00:15:35;;;;;;;6.77;4.07;;;13.60;80.20;;;;;;5055815;28;20410;-75
2022/05/14 00:18:02;;;;;;;9.50;4.33;;;13.50;80.30;;;;;;5057358;28;20469;-75
2022/05/14 00:20:28;;;;;;;7.87;3.40;;;13.50;80.90;;;;;;5054208;28;20916;-75
2022/05/14 00:22:54;;;;;;;6.03;4.60;;;13.40;80.80;;;;;;5052941;28;20446;-76
2022/05/14 00:25:20;;;;;;;9.00;4.20;;;13.40;80.90;;;;;;5054292;28;20213;-77
2022/05/14 00:27:46;;;;;;;6.17;3.47;;;13.40;81.50;;;;;;5054161;28;20192;-76
2022/05/14 00:30:15;;;;;;;11.73;3.83;;;13.40;81.10;;;;;;5054648;28;20422;-76
2022/05/14 00:32:40;;;;;;;7.57;3.67;;;13.40;80.90;;;;;;5055296;28;20431;-76
2022/05/14 00:35:09;;;;;;;5.50;3.33;;;13.30;81.20;;;;;;5053845;28;20451;-76
2022/05/14 00:37:35;;;;;;;9.00;4.30;;;13.40;81.80;;;;;;5052888;28;20423;-76
2022/05/14 00:40:09;;;;;;;9.00;3.80;;;13.30;81.70;;;;;;5053088;28;20414;-76
2022/05/14 00:42:35;;;;;;;5.50;3.57;;;13.20;81.80;;;;;;5054582;28;20441;-76
2022/05/14 00:45:01;;;;;;;7.33;4.70;;;13.20;81.70;;;;;;5053842;28;21037;-76
2022/05/14 00:47:34;;;;;;;6.83;3.30;;;13.10;81.50;;;;;;5054924;28;20177;-76
2022/05/14 00:50:00;;;;;;;8.30;3.60;;;13.00;81.70;;;;;;5054150;28;20420;-77
2022/05/14 00:52:27;;;;;;;5.97;3.80;;;12.90;81.90;;;;;;5054853;28;20435;-76
2022/05/14 00:55:00;;;;;;;7.57;3.83;;;12.90;81.90;;;;;;5052972;28;20446;-76
2022/05/14 00:57:29;;;;;;;7.10;3.43;;;12.90;82.20;;;;;;5051380;28;20513;-76
2022/05/14 00:59:56;;;;;;;6.43;4.27;;;12.90;82.40;;;;;;5051269;28;20423;-77
2022/05/14 01:02:22;;;;;;;6.17;3.20;;;12.90;82.20;;;;;;5053184;28;20446;-75
2022/05/14 01:04:48;;;;;;;6.03;3.30;;;12.80;82.40;;;;;;5052234;28;20462;-74
2022/05/14 01:07:20;;;;;;;6.00;3.63;;;12.80;82.40;;;;;;5053664;28;20200;-75
2022/05/14 01:09:55;;;;;;;15.10;4.40;;;12.70;82.70;;;;;;5053073;28;20191;-75
2022/05/14 01:12:23;;;;;;;6.00;3.23;;;12.70;83.30;;;;;;5047424;28;20497;-75
2022/05/14 01:14:50;;;;;;;5.90;3.23;;;12.70;83.30;;;;;;5047242;28;20431;-75
2022/05/14 01:17:15;;;;;;;6.20;2.80;;;12.70;83.30;;;;;;5051127;28;20444;-75
2022/05/14 01:19:41;;;;;;;5.53;2.97;;;12.70;83.40;;;;;;5053613;28;20999;-76
2022/05/14 01:22:25;;;;;;;8.47;3.30;;;12.70;83.40;;;;;;5054924;28;20196;-75
2022/05/14 01:27:36;;;;;;;12.37;3.13;;;12.70;83.10;;;;;;5047328;28;20405;-76
2022/05/14 01:30:01;;;;;;;6.83;3.30;;;12.70;83.30;;;;;;5053624;28;20453;-75
2022/05/14 01:32:27;;;;;;;4.97;2.83;;;12.60;83.40;;;;;;5054391;28;20515;-74
2022/05/14 01:34:53;;;;;;;7.07;3.27;;;12.50;83.60;;;;;;5052827;28;20513;-74
2022/05/14 01:37:20;;;;;;;6.93;3.27;;;12.50;83.60;;;;;;5044925;28;20268;-75
2022/05/14 01:39:46;;;;;;;6.40;3.07;;;12.40;83.60;;;;;;5055413;28;20967;-74
2022/05/14 01:42:12;;;;;;;7.50;3.57;;;12.40;83.70;;;;;;5063554;28;20446;-76
2022/05/14 01:44:38;;;;;;;5.93;3.40;;;12.40;84.30;;;;;;5059362;28;20694;-76
2022/05/14 01:47:04;;;;;;;5.30;3.33;;;12.40;84.60;;;;;;5059240;28;20442;-75
2022/05/14 01:49:29;;;;;;;6.97;2.87;;;12.40;84.40;;;;;;5058667;28;20184;-76
2022/05/14 01:51:56;;;;;;;5.97;3.50;;;12.40;84.30;;;;;;5058346;28;20864;-75
2022/05/14 01:54:21;;;;;;;5.40;3.20;;;12.30;84.40;;;;;;5053064;28;20206;-74
2022/05/14 01:56:47;;;;;;;4.67;2.67;;;12.20;84.90;;;;;;5050893;28;20796;-75
2022/05/14 01:59:14;;;;;;;6.10;3.40;;;12.20;84.90;;;;;;5053779;28;20713;-76
2022/05/14 02:01:40;;;;;;;7.50;2.93;;;12.20;84.90;;;;;;5051940;28;20218;-74
2022/05/14 02:04:10;;;;;;;4.27;2.50;;;12.10;85.00;;;;;;5053071;28;20485;-76
2022/05/14 02:06:36;;;;;;;4.37;2.87;;;12.10;85.30;;;;;;5053530;28;20427;-76
2022/05/14 02:09:05;;;;;;;7.33;3.27;;;12.20;85.50;;;;;;5057199;28;20452;-76
2022/05/14 02:11:30;;;;;;;5.70;2.53;;;12.20;85.00;;;;;;5060978;28;20434;-75
2022/05/14 02:13:56;;;;;;;5.70;2.67;;;12.20;85.30;;;;;;5061677;28;20592;-75
2022/05/14 02:16:23;;;;;;;6.73;2.67;;;12.20;84.90;;;;;;5061252;28;20431;-76
2022/05/14 02:18:49;;;;;;;6.00;3.07;;;12.20;85.00;;;;;;5065320;28;20426;-76
2022/05/14 02:21:15;;;;;;;7.30;2.97;;;12.20;84.90;;;;;;5067025;28;21368;-76
2022/05/14 02:23:41;;;;;;;3.73;2.70;;;12.20;84.90;;;;;;5065393;28;20491;-75
2022/05/14 02:26:10;;;;;;;4.27;2.60;;;12.20;85.20;;;;;;5067232;28;20453;-76
2022/05/14 02:28:36;;;;;;;2.87;2.27;;;12.20;85.00;;;;;;5069670;28;20434;-76
2022/05/14 02:31:02;;;;;;;8.70;2.60;;;12.20;84.90;;;;;;5061975;28;20410;-75
2022/05/14 02:33:28;;;;;;;5.33;2.80;;;12.20;85.20;;;;;;5058319;28;20423;-77
2022/05/14 02:35:54;;;;;;;3.63;2.33;;;12.20;85.00;;;;;;5058511;28;20195;-75
2022/05/14 02:38:20;;;;;;;7.13;2.27;;;12.10;84.90;;;;;;5060431;28;20929;-77
2022/05/14 02:40:46;;;;;;;2.50;1.90;;;12.20;83.70;;;;;;5058575;28;20711;-77
2022/05/14 02:43:12;;;;;;;3.47;1.70;;;12.10;83.30;;;;;;5059465;28;20429;-76
2022/05/14 02:45:38;;;;;;;2.53;1.73;;;12.10;82.80;;;;;;5061124;28;20470;-76
2022/05/14 02:48:04;;;;;;;5.70;1.60;;;12.10;82.70;;;;;;5060909;28;20510;-75
2022/05/14 02:50:29;;;;;;;6.10;1.93;;;12.10;82.70;;;;;;5059253;28;20594;-77
2022/05/14 02:52:55;;;;;;;3.73;1.80;;;12.10;82.50;;;;;;5060764;28;20522;-77
2022/05/14 02:55:21;;;;;;;5.17;2.23;;;12.10;82.70;;;;;;5061154;28;20181;-75
2022/05/14 02:57:47;;;;;;;5.07;2.10;;;12.10;82.80;;;;;;5062814;28;20894;-77
2022/05/14 03:00:16;;;;;;;2.80;1.80;;;12.10;83.10;;;;;;5061092;28;20454;-76
2022/05/14 03:02:42;;;;;;;3.30;2.63;;;12.10;83.40;;;;;;5064380;28;20196;-76
2022/05/14 03:05:09;;;;;;;7.33;3.03;;;12.10;83.80;;;;;;5065995;28;20473;-75
2022/05/14 03:07:35;;;;;;;5.90;2.80;;;12.00;84.30;;;;;;5064713;28;20983;-76
2022/05/14 03:10:01;;;;;;;6.27;2.93;;;11.90;84.90;;;;;;5061973;28;20425;-77
2022/05/14 03:12:27;;;;;;;8.17;2.73;;;11.80;85.30;;;;;;5060209;28;20489;-75
2022/05/14 03:14:53;;;;;;;8.17;2.87;;;11.80;85.70;;;;;;5058794;28;20431;-76
2022/05/14 03:17:18;;;;;;;9.83;3.00;;;11.70;86.00;;;;;;5057626;28;20251;-77
2022/05/14 03:19:45;;;;;;;4.03;2.77;;;11.70;86.30;;;;;;5055062;28;20199;-77
2022/05/14 03:22:11;;;;;;;3.83;2.63;;;11.70;86.50;;;;;;5057853;28;20208;-76
2022/05/14 03:24:37;;;;;;;5.80;2.80;;;11.70;86.30;;;;;;5059477;28;20474;-77
2022/05/14 03:27:04;;;;;;;8.37;3.00;;;11.70;86.20;;;;;;5054355;28;20861;-76
2022/05/14 03:29:30;;;;;;;7.73;2.73;;;11.80;86.20;;;;;;5053540;28;20495;-77
2022/05/14 03:31:57;;;;;;;10.53;3.10;;;11.70;85.60;;;;;;5053727;28;20439;-75
2022/05/14 03:34:24;;;;;;;3.57;2.50;;;11.70;85.70;;;;;;5054390;28;20435;-78
2022/05/14 03:36:51;;;;;;;3.60;2.40;;;11.70;85.90;;;;;;5051624;28;20480;-75
2022/05/14 03:39:17;;;;;;;5.60;2.80;;;11.60;85.60;;;;;;5053486;28;20799;-77
2022/05/14 03:41:44;;;;;;;4.60;3.27;;;11.60;85.70;;;;;;5051399;28;20457;-77
2022/05/14 03:44:10;;;;;;;4.37;2.67;;;11.60;85.90;;;;;;5052035;28;20605;-76
2022/05/14 03:46:36;;;;;;;5.53;2.83;;;11.60;85.00;;;;;;5052414;28;20431;-77
2022/05/14 03:49:02;;;;;;;10.27;3.10;;;11.60;85.00;;;;;;5051722;28;20939;-76
2022/05/14 03:51:29;;;;;;;4.17;2.63;;;11.60;84.70;;;;;;5052820;28;20506;-77
2022/05/14 03:53:55;;;;;;;5.33;3.00;;;11.60;84.90;;;;;;5053447;28;20830;-75
2022/05/14 03:56:21;;;;;;;4.17;2.80;;;11.60;85.00;;;;;;5052805;28;20430;-76
2022/05/14 03:58:47;;;;;;;5.77;3.30;;;11.60;84.70;;;;;;5053388;28;20423;-75
2022/05/14 04:01:13;;;;;;;9.33;3.40;;;11.50;84.90;;;;;;5052578;28;20224;-77
2022/05/14 04:03:39;;;;;;;4.60;3.13;;;11.50;85.00;;;;;;5053096;28;20372;-76
2022/05/14 04:06:06;;;;;;;8.80;3.33;;;11.50;85.00;;;;;;5050205;28;20419;-76
2022/05/14 04:08:32;;;;;;;5.57;2.53;;;11.50;85.20;;;;;;5052816;28;20419;-75
2022/05/14 04:10:58;;;;;;;6.40;2.90;;;11.50;85.20;;;;;;5051854;28;20418;-75
2022/05/14 04:13:26;;;;;;;5.10;2.77;;;11.50;85.30;;;;;;5052708;28;20438;-76
2022/05/14 04:15:52;;;;;;;4.90;2.80;;;11.40;85.30;;;;;;5052831;28;20422;-76
2022/05/14 04:18:24;;;;;;;9.67;3.57;;;11.40;85.60;;;;;;5052517;28;20499;-77
2022/05/14 04:20:54;;;;;;;5.03;3.50;;;11.40;85.70;;;;;;5047193;28;20431;-74
2022/05/14 04:23:21;;;;;;;8.20;3.00;;;11.30;85.70;;;;;;5051238;28;20422;-76
2022/05/14 04:25:50;;;;;;;5.57;3.30;;;11.40;85.90;;;;;;5052803;28;20517;-75
2022/05/14 04:28:17;;;;;;;8.80;3.43;;;11.40;85.90;;;;;;5052970;28;20518;-76
2022/05/14 04:30:43;;;;;;;8.73;3.20;;;11.40;86.00;;;;;;5053672;28;20419;-75
2022/05/14 04:33:09;;;;;;;6.83;3.30;;;11.40;85.70;;;;;;5054125;28;20960;-75
2022/05/14 04:35:35;;;;;;;4.93;3.00;;;11.50;85.60;;;;;;5053546;28;20940;-74
2022/05/14 04:38:01;;;;;;;8.60;3.27;;;11.60;85.60;;;;;;5053574;28;20423;-76
2022/05/14 04:40:27;;;;;;;4.50;3.27;;;11.60;85.70;;;;;;5056242;28;20188;-76
2022/05/14 04:42:53;;;;;;;5.60;3.23;;;11.60;85.50;;;;;;5057738;28;20196;-76
2022/05/14 04:45:19;;;;;;;6.33;3.40;;;11.60;85.30;;;;;;5052399;28;20554;-74
2022/05/14 04:47:44;;;;;;;7.60;3.40;;;11.60;85.50;;;;;;5051188;28;20477;-77
2022/05/14 04:50:12;;;;;;;4.80;3.20;;;11.50;85.60;;;;;;5050957;28;20562;-76
2022/05/14 04:52:38;;;;;;;8.27;3.17;;;11.60;85.60;;;;;;5052201;28;20254;-75
2022/05/14 04:55:05;;;;;;;4.20;2.70;;;11.60;85.30;;;;;;5052431;28;20495;-75
2022/05/14 04:57:31;;;;;;;5.57;2.90;;;11.70;85.00;;;;;;5053275;28;20430;-74
2022/05/14 04:59:57;;;;;;;6.63;3.20;;;11.70;85.00;;;;;;5053607;28;20431;-76
2022/05/14 05:05:07;;;;;;;9.37;3.83;;;11.70;85.20;;;;;;5055519;28;20223;-75
2022/05/14 05:07:33;;;;;;;11.00;3.23;;;11.90;84.90;;;;;;5058090;28;20418;-76
2022/05/14 05:09:59;;;;;;;7.37;2.83;;;12.00;84.40;;;;;;5058269;28;20418;-77
2022/05/14 05:12:25;;;;;;;4.20;2.83;;;11.90;84.90;;;;;;5055147;28;20200;-76
2022/05/14 05:14:50;;;;;;;6.27;3.03;;;11.90;85.20;;;;;;5052138;28;20647;-75
2022/05/14 05:17:16;;;;;;;4.30;3.27;;;11.90;84.90;;;;;;5055111;28;20180;-76
2022/05/14 05:19:42;;;;;;;4.97;2.80;;;12.00;84.90;;;;;;5058233;28;20267;-77
2022/05/14 05:22:08;;;;;;;5.70;3.50;;;12.10;84.90;;;;;;5056446;28;20652;-75
2022/05/14 05:24:34;;;;;;;6.70;3.37;;;12.10;84.60;;;;;;5063323;28;20200;-76
2022/05/14 05:27:00;;;;;;;6.47;3.87;;;12.20;84.60;;;;;;5057749;28;20434;-76
2022/05/14 05:29:25;;;;;;;6.30;3.17;;;12.30;84.30;;;;;;5052675;28;20494;-74
2022/05/14 05:31:51;;;;;;;9.00;3.80;;;12.30;83.80;;;;;;5053546;28;20295;-75
2022/05/14 05:34:17;;;;;;;7.17;3.17;;;12.30;84.00;;;;;;5054506;28;20187;-78
2022/05/14 05:36:43;;;;;;;4.93;3.33;;;12.40;83.70;;;;;;5052247;28;20177;-76
2022/05/14 05:39:10;;;;;;;5.43;3.40;;;12.50;83.10;;;;;;5053673;28;20310;-75
2022/05/14 05:41:36;;;;;;;5.53;3.10;;;12.60;83.00;;;;;;5054577;28;20667;-77
2022/05/14 05:44:02;;;;;;;5.10;3.13;;;12.70;82.80;;;;;;5052818;28;20492;-76
2022/05/14 05:46:28;;;;;;;8.30;3.60;;;12.80;82.20;;;;;;5052188;28;20427;-75
2022/05/14 05:48:54;;;;;;;6.07;3.80;;;13.00;81.90;;;;;;5052003;28;20426;-78
2022/05/14 05:51:19;;;;;;;5.53;2.93;;;13.10;81.70;;;;;;5049391;28;20196;-74
2022/05/14 05:56:49;;;;;;;3.20;2.83;;;13.40;80.90;;;;;;5050252;28;20187;-75
2022/05/14 05:59:16;;;;;;;5.60;2.93;;;13.50;80.80;;;;;;5051771;28;20430;-77
2022/05/14 06:01:43;;;;;;;4.87;3.13;;;13.50;80.80;;;;;;5052862;28;20442;-75
2022/05/14 06:04:08;;;;;;;4.00;3.23;;;13.60;80.50;;;;;;5054430;28;20471;-75
2022/05/14 06:06:34;;;;;;;8.37;3.70;;;13.70;80.30;;;;;;5054797;28;20420;-76
2022/05/14 06:09:01;;;;;;;5.23;3.23;;;13.80;80.00;;;;;;5055165;28;20428;-75
2022/05/14 06:11:26;;;;;;;5.43;3.17;;;13.90;79.90;;;;;;5055158;28;20439;-75
2022/05/14 06:13:52;;;;;;;6.33;3.50;;;14.00;79.60;;;;;;5052508;28;20421;-74
2022/05/14 06:16:18;;;;;;;7.50;3.60;;;14.10;79.50;;;;;;5049708;28;20193;-75
2022/05/14 06:18:45;;;;;;;6.30;3.60;;;14.20;78.90;;;;;;5051197;28;20419;-77
2022/05/14 06:21:12;;;;;;;8.23;3.73;;;14.40;78.70;;;;;;5048921;28;20452;-77
2022/05/14 06:23:37;;;;;;;5.53;3.20;;;14.40;78.60;;;;;;5050866;28;20847;-76
2022/05/14 06:26:03;;;;;;;6.30;3.90;;;14.60;78.30;;;;;;5051071;28;20467;-75
2022/05/14 06:28:29;;;;;;;4.77;3.23;;;14.70;78.10;;;;;;5044615;28;20451;-75
2022/05/14 06:30:56;;;;;;;4.67;3.23;;;14.80;77.70;;;;;;5055737;28;20185;-75
2022/05/14 06:33:22;;;;;;;8.47;3.63;;;14.90;77.30;;;;;;5050034;28;20419;-75
2022/05/14 06:35:48;;;;;;;5.10;3.40;;;15.10;76.70;;;;;;5051467;28;20541;-74
2022/05/14 06:38:14;;;;;;;6.60;3.90;;;15.10;76.10;;;;;;5049581;28;20204;-75
2022/05/14 06:40:41;;;;;;;9.40;4.20;;;15.20;75.50;;;;;;5051125;28;20187;-77
2022/05/14 06:43:07;;;;;;;7.47;3.90;;;15.30;75.50;;;;;;5051315;28;20204;-76
2022/05/14 06:45:33;;;;;;;5.70;3.40;;;15.40;74.90;;;;;;5050791;28;20462;-77
2022/05/14 06:47:58;;;;;;;5.90;3.50;;;15.50;74.50;;;;;;5050600;28;20755;-76
2022/05/14 06:50:26;;;;;;;4.70;2.83;;;15.60;73.90;;;;;;5050245;28;20179;-75
2022/05/14 06:52:55;;;;;;;5.10;3.07;;;15.70;73.90;;;;;;5051070;28;20212;-77
2022/05/14 06:55:24;;;;;;;8.20;3.00;;;15.70;72.60;;;;;;5051217;28;20435;-74
2022/05/14 06:57:51;;;;;;;3.90;2.50;;;15.70;72.10;;;;;;5056055;28;20498;-75
2022/05/14 07:00:18;;;;;;;6.07;2.60;;;15.90;71.00;;;;;;5057015;28;20437;-73
2022/05/14 07:02:45;;;;;;;6.00;2.80;;;16.10;69.80;;;;;;5056530;28;20511;-75
2022/05/14 07:07:55;;;;;;;10.53;3.87;;;16.40;69.90;;;;;;5051432;28;20471;-77
2022/05/14 07:10:21;;;;;;;3.33;2.13;;;16.60;70.40;;;;;;5056106;28;20979;-76
2022/05/14 07:12:47;;;;;;;4.17;1.90;;;16.60;68.90;;;;;;5055931;28;20503;-75
2022/05/14 07:15:13;;;;;;;6.40;3.00;;;16.60;66.70;;;;;;5054908;28;20437;-76
2022/05/14 07:17:39;;;;;;;7.67;3.13;;;16.70;67.70;;;;;;5054254;28;20516;-76
2022/05/14 07:20:06;;;;;;;11.73;4.20;;;16.80;70.10;;;;;;5063846;28;20192;-75
2022/05/14 07:22:32;;;;;;;8.73;4.50;;;16.90;70.80;;;;;;5066212;28;20264;-76
2022/05/14 07:24:58;;;;;;;11.77;3.70;;;17.00;69.90;;;;;;5065192;28;20606;-75
2022/05/14 07:27:24;;;;;;;7.50;4.10;;;17.10;69.50;;;;;;5064496;28;20452;-77
2022/05/14 07:29:50;;;;;;;7.80;3.77;;;17.30;70.20;;;;;;5063875;28;20184;-75
2022/05/14 07:32:18;;;;;;;6.93;3.73;;;17.40;67.50;;;;;;5066790;28;20460;-77
2022/05/14 07:34:44;;;;;;;8.57;3.10;;;17.50;69.10;;;;;;5065266;28;20564;-76
2022/05/14 07:37:19;;;;;;;10.27;3.27;;;17.60;66.70;;;;;;5067040;28;20453;-75
2022/05/14 07:39:48;;;;;;;7.93;5.10;;;17.70;65.70;;;;;;5064876;28;20430;-75
2022/05/14 07:42:22;;;;;;;13.90;6.23;;;17.80;67.60;;;;;;5068701;28;20443;-74
2022/05/14 07:44:52;;;;;;;8.23;4.67;;;17.90;68.00;;;;;;5056315;28;20460;-73
2022/05/14 07:47:18;;;;;;;10.20;4.47;;;18.00;67.90;;;;;;5059338;28;20425;-72
2022/05/14 07:49:47;;;;;;;9.07;4.33;;;18.00;67.60;;;;;;5058541;28;20419;-72
2022/05/14 07:52:13;;;;;;;6.43;4.00;;;18.10;65.70;;;;;;5058005;28;20450;-73
2022/05/14 07:54:39;;;;;;;10.27;3.60;;;18.20;66.30;;;;;;5058375;28;20788;-73
2022/05/14 07:57:07;;;;;;;6.67;3.80;;;18.20;65.80;;;;;;5061099;28;20436;-73
2022/05/14 07:59:35;;;;;;;6.47;3.80;;;18.30;65.70;;;;;;5056422;28;20445;-72
2022/05/14 08:02:02;;;;;;;4.93;3.50;;;18.30;65.60;;;;;;5056223;28;20477;-74
2022/05/14 08:04:27;;;;;;;6.40;3.07;;;18.40;65.40;;;;;;5055820;28;20986;-72
2022/05/14 08:06:53;;;;;;;4.87;3.67;;;18.50;65.10;;;;;;5059699;28;20467;-74
2022/05/14 08:09:19;;;;;;;5.03;3.50;;;18.50;64.50;;;;;;5058887;28;20269;-72
2022/05/14 08:11:45;;;;;;;7.23;3.40;;;18.50;65.00;;;;;;5060676;28;20979;-72
2022/05/14 08:14:11;;;;;;;7.57;3.90;;;18.60;64.70;;;;;;5060025;28;20185;-74
2022/05/14 08:16:37;;;;;;;7.53;3.90;;;18.70;63.70;;;;;;5061842;28;20442;-73
2022/05/14 08:19:03;;;;;;;7.20;3.23;;;18.70;62.60;;;;;;5063247;28;20189;-74
2022/05/14 08:24:34;;;;;;;6.73;3.43;;;18.60;62.50;;;;;;5057517;28;20458;-72
2022/05/14 08:27:09;;;;;;;8.53;3.37;;;18.70;62.80;;;;;;5054259;28;20407;-72
2022/05/14 08:29:36;;;;;;;7.23;3.03;;;18.80;62.00;;;;;;5057437;28;20475;-71
2022/05/14 08:32:03;;;;;;;8.43;3.70;;;18.80;61.60;;;;;;5054522;28;20429;-73
2022/05/14 08:34:29;;;;;;;7.93;4.00;;;18.80;61.50;;;;;;5054958;28;20449;-72
2022/05/14 08:36:55;;;;;;;11.23;4.30;;;18.90;61.50;;;;;;5054906;28;20436;-73
2022/05/14 08:39:21;;;;;;;7.20;3.20;;;19.00;61.50;;;;;;5054064;28;20418;-72
2022/05/14 08:41:49;;;;;;;8.87;3.43;;;19.10;61.50;;;;;;5052324;28;20934;-75
2022/05/14 08:44:21;;;;;;;9.17;4.00;;;19.10;61.50;;;;;;5051655;28;20213;-72
2022/05/14 08:46:56;;;;;;;6.93;3.57;;;19.20;61.00;;;;;;5051272;28;20422;-75
2022/05/14 08:49:45;;;;;;;9.00;3.13;;;19.30;60.60;;;;;;5044514;28;20444;-76
2022/05/14 08:52:18;;;;;;;3.20;2.60;;;19.40;60.40;;;;;;5051241;28;20423;-73
2022/05/14 08:54:44;;;;;;;5.03;2.37;;;19.50;58.90;;;;;;5051734;28;20480;-72
2022/05/14 08:57:45;;;;;;;7.07;3.70;;;19.50;58.50;;;;;;5051455;28;20947;-73
2022/05/14 09:00:11;;;;;;;5.03;3.03;;;19.60;58.80;;;;;;5042191;28;20188;-73
2022/05/14 09:02:40;;;;;;;5.03;2.67;;;19.60;58.40;;;;;;5052079;28;20965;-75
2022/05/14 09:05:11;;;;;;;6.10;3.00;;;19.70;58.00;;;;;;5053802;28;20554;-73
2022/05/14 09:07:37;;;;;;;4.60;2.80;;;19.80;58.00;;;;;;5052664;28;20420;-75
2022/05/14 09:10:06;;;;;;;7.93;2.67;;;19.80;57.40;;;;;;5052407;28;20919;-77
2022/05/14 09:12:36;;;;;;;2.90;2.20;;;19.90;57.30;;;;;;5054799;28;20283;-74
2022/05/14 09:15:13;;;;;;;5.60;3.10;;;20.00;57.30;;;;;;5054070;28;20430;-74
2022/05/14 09:17:39;;;;;;;8.03;2.80;;;20.10;56.80;;;;;;5055174;28;20423;-77
2022/05/14 09:20:05;;;;;;;5.40;2.63;;;20.10;55.80;;;;;;5052324;28;20513;-77
2022/05/14 09:22:40;;;;;;;9.97;4.20;;;20.20;56.00;;;;;;5052712;28;20427;-76
2022/05/14 09:25:15;;;;;;;4.80;3.10;;;20.10;56.10;;;;;;5051418;28;21070;-75
2022/05/14 09:27:47;;;;;;;8.70;3.47;;;20.10;57.00;;;;;;5052035;28;20481;-76
2022/05/14 09:30:31;;;;;;;5.40;2.93;;;20.10;57.70;;;;;;5052657;28;20873;-77
2022/05/14 09:32:57;;;;;;;5.80;3.67;;;19.90;57.30;;;;;;5032749;28;20456;-78
2022/05/14 09:35:29;;;;;;;9.03;3.10;;;19.80;57.60;;;;;;5052400;28;20438;-75
2022/05/14 09:38:18;;;;;;;6.07;3.27;;;19.80;58.40;;;;;;5052890;28;20444;-77
2022/05/14 09:40:45;;;;;;;7.40;3.13;;;20.00;58.20;;;;;;5052302;28;20424;-76
2022/05/14 09:43:16;;;;;;;4.13;2.60;;;20.10;57.20;;;;;;5052834;28;20439;-75
2022/05/14 09:46:00;;;;;;;8.27;3.57;;;20.20;56.40;;;;;;5051292;28;20467;-75
2022/05/14 09:48:35;;;;;;;8.07;3.30;;;20.30;56.20;;;;;;5033075;28;20924;-76
2022/05/14 09:51:06;;;;;;;5.73;2.70;;;20.40;56.00;;;;;;5044756;28;20447;-77
2022/05/14 09:53:35;;;;;;;7.20;3.03;;;20.50;55.60;;;;;;5058417;28;20994;-76
2022/05/14 09:56:09;;;;;;;9.37;3.10;;;20.50;55.60;;;;;;5065978;28;20413;-76
2022/05/14 09:58:47;;;;;;;7.27;2.77;;;20.50;55.60;;;;;;5065202;28;20421;-77
2022/05/14 10:01:19;;;;;;;9.50;3.40;;;20.60;55.20;;;;;;5063626;28;20428;-80
2022/05/14 10:04:18;;;;;;;5.93;2.87;;;20.90;54.80;;;;;;5055628;28;20400;-76
2022/05/14 10:06:46;;;;;;;7.30;3.00;;;21.20;54.10;;;;;;5050250;28;20885;-76
2022/05/14 10:09:25;;;;;;;3.33;2.50;;;21.40;53.60;;;;;;5035561;28;20494;-76
2022/05/14 10:12:10;;;;;;;5.23;3.07;;;21.50;53.40;;;;;;5037992;28;20480;-75
2022/05/14 10:15:05;;;;;;;4.70;2.87;;;21.60;53.00;;;;;;5030009;28;20486;-76
2022/05/14 10:18:22;;;;;;;9.50;2.73;;;21.70;51.60;;;;;;5033112;28;20420;-76
2022/05/14 10:21:18;;;;;;;4.67;2.73;;;21.90;50.70;;;;;;4992885;28;20419;-76
2022/05/14 10:26:53;;;;;;;4.50;2.67;;;22.20;50.30;;;;;;5027802;28;20492;-75
2022/05/14 10:29:56;;;;;;;6.40;2.70;;;22.60;50.70;;;;;;5033283;28;20414;-77
2022/05/14 10:32:26;;;;;;;3.43;2.47;;;22.60;49.70;;;;;;5051698;28;20445;-76
2022/05/14 10:35:06;;;;;;;9.97;2.90;;;22.50;49.90;;;;;;5036891;28;20441;-75
2022/05/14 10:37:40;;;;;;;10.60;3.30;;;22.50;49.90;;;;;;5026612;28;20872;-77
2022/05/14 10:40:27;;;;;;;3.80;2.43;;;22.30;50.30;;;;;;5033406;28;20447;-77
2022/05/14 10:43:02;;;;;;;7.57;2.93;;;22.40;50.20;;;;;;5050255;28;20450;-76
2022/05/14 10:45:37;;;;;;;9.93;2.63;;;22.60;49.70;;;;;;5049482;28;20482;-77
2022/05/14 10:48:18;;;;;;;5.87;3.00;;;22.80;49.50;;;;;;5056057;28;20437;-76
2022/05/14 10:50:44;;;;;;;7.20;2.70;;;22.90;49.00;;;;;;5051334;28;20479;-76
2022/05/14 10:53:10;;;;;;;3.00;2.07;;;22.80;49.10;;;;;;5055758;28;20546;-76
2022/05/14 10:55:49;;;;;;;5.40;2.53;;;22.90;49.00;;;;;;5055495;28;20191;-77
2022/05/14 10:58:35;;;;;;;4.90;2.60;;;23.20;48.90;;;;;;5056133;28;20437;-77
2022/05/14 11:01:03;;;;;;;10.00;2.20;;;23.50;48.30;;;;;;5057843;28;20436;-77
2022/05/14 11:03:32;;;;;;;5.33;2.60;;;23.60;47.30;;;;;;5054706;28;20452;-77
2022/05/14 11:06:01;;;;;;;3.33;2.20;;;23.80;44.90;;;;;;5056096;28;20627;-76
2022/05/14 11:08:36;;;;;;;6.90;3.90;;;24.00;44.70;;;;;;5056844;28;20415;-76
2022/05/14 11:11:06;;;;;;;3.43;2.20;;;24.00;45.80;;;;;;5055394;28;20890;-75
2022/05/14 11:13:34;;;;;;;5.33;2.60;;;23.80;46.30;;;;;;5055870;28;20460;-76
2022/05/14 11:16:13;;;;;;;7.47;2.27;;;23.50;47.10;;;;;;5055215;28;20424;-77
2022/05/14 11:18:48;;;;;;;4.20;2.30;;;23.70;46.30;;;;;;5055247;28;20518;-77
2022/05/14 11:21:14;;;;;;;6.13;2.60;;;24.10;45.70;;;;;;5054005;28;20469;-77
2022/05/14 11:23:58;;;;;;;7.97;3.47;;;24.00;46.20;;;;;;5054081;28;20425;-77
2022/05/14 11:26:26;;;;;;;3.60;2.37;;;24.10;46.20;;;;;;5045974;28;20545;-76
2022/05/14 11:28:59;;;;;;;11.93;2.43;;;23.70;46.60;;;;;;5055299;28;20441;-75
2022/05/14 11:31:29;;;;;;;5.53;2.30;;;23.70;47.10;;;;;;5046803;28;20529;-76
2022/05/14 11:33:59;;;;;;;5.80;2.50;;;24.00;46.30;;;;;;5054182;28;20447;-77
2022/05/14 11:36:31;;;;;;;5.83;2.40;;;23.80;45.90;;;;;;5054093;28;20437;-76
2022/05/14 11:39:22;;;;;;;3.23;2.70;;;24.00;46.30;;;;;;5054653;28;20793;-76
2022/05/14 11:41:52;;;;;;;3.27;2.30;;;24.10;45.30;;;;;;5052033;28;20796;-76
2022/05/14 11:44:31;;;;;;;6.77;2.10;;;24.40;44.70;;;;;;5053422;28;20560;-77
2022/05/14 11:46:58;;;;;;;6.87;2.40;;;24.50;44.60;;;;;;5054045;28;20447;-76
2022/05/14 11:49:46;;;;;;;4.00;2.50;;;24.60;43.70;;;;;;5054035;28;20876;-76
2022/05/14 11:52:16;;;;;;;7.30;2.80;;;24.40;44.30;;;;;;5053281;28;20443;-77
2022/05/14 11:54:50;;;;;;;4.17;2.50;;;24.40;43.90;;;;;;5054786;28;20445;-78
2022/05/14 11:57:26;;;;;;;4.77;2.10;;;24.30;44.60;;;;;;5054215;28;20420;-77
2022/05/14 12:00:08;;;;;;;5.13;2.37;;;24.40;44.90;;;;;;5053877;28;20860;-77
2022/05/14 12:02:51;;;;;;;5.67;2.13;;;24.40;44.20;;;;;;5052587;28;20447;-77
2022/05/14 12:05:25;;;;;;;5.97;2.50;;;24.40;44.20;;;;;;5053110;28;20463;-76
2022/05/14 12:08:06;;;;;;;4.60;2.07;;;24.40;43.40;;;;;;5054031;28;20966;-77
2022/05/14 12:10:50;;;;;;;9.47;2.37;;;24.10;44.10;;;;;;5053930;28;20418;-77
2022/05/14 12:13:51;;;;;;;4.03;2.63;;;24.30;43.80;;;;;;5052419;28;20426;-77
2022/05/14 12:16:34;;;;;;;3.30;1.80;;;24.30;43.80;;;;;;5052296;28;20421;-78
2022/05/14 12:19:02;;;;;;;4.20;1.73;;;24.50;43.50;;;;;;5053090;28;20511;-77
2022/05/14 12:21:28;;;;;;;4.30;2.20;;;24.80;43.10;;;;;;5052540;28;20446;-76
2022/05/14 12:23:54;;;;;;;6.07;2.00;;;24.70;42.60;;;;;;5052383;28;20485;-78
2022/05/14 12:26:33;;;;;;;5.40;2.57;;;24.60;43.10;;;;;;5052455;28;20468;-76
2022/05/14 12:29:23;;;;;;;8.60;2.53;;;24.60;43.50;;;;;;5045496;28;20429;-78
2022/05/14 12:34:56;;;;;;;6.50;2.33;;;25.40;41.20;;;;;;5052810;28;20412;-76
2022/05/14 12:37:36;;;;;;;8.43;2.37;;;24.90;41.60;;;;;;5052294;28;20416;-77
2022/05/14 12:40:03;;;;;;;5.20;2.20;;;24.70;41.90;;;;;;5051650;28;20425;-74
2022/05/14 12:42:36;;;;;;;4.23;2.43;;;24.80;42.20;;;;;;5051007;28;21025;-75
2022/05/14 12:45:04;;;;;;;3.20;2.17;;;25.00;41.50;;;;;;5051345;28;20511;-74
2022/05/14 12:47:31;;;;;;;1.77;1.70;;;25.30;41.10;;;;;;5050399;28;20762;-74
2022/05/14 12:49:58;;;;;;;3.60;2.00;;;25.40;40.20;;;;;;5052256;28;20776;-76
2022/05/14 12:52:32;;;;;;;3.50;2.13;;;25.30;40.30;;;;;;5052356;28;20440;-75
2022/05/14 12:55:10;;;;;;;6.83;2.10;;;25.60;41.10;;;;;;5052133;28;20457;-75
2022/05/14 12:57:39;;;;;;;7.57;2.40;;;25.90;39.10;;;;;;5052536;28;20418;-73
2022/05/14 13:00:07;;;;;;;3.50;2.30;;;25.70;39.80;;;;;;5050547;28;20508;-76
2022/05/14 13:02:38;;;;;;;3.47;2.10;;;25.80;39.20;;;;;;5051931;28;20798;-74
2022/05/14 13:05:10;;;;;;;12.20;2.00;;;26.20;39.10;;;;;;5052041;28;20457;-74
2022/05/14 13:07:44;;;;;;;4.77;2.43;;;26.20;38.70;;;;;;5051789;28;20415;-72
2022/05/14 13:10:10;;;;;;;3.70;2.70;;;26.40;39.00;;;;;;5050981;28;20423;-72
2022/05/14 13:12:36;;;;;;;6.50;2.20;;;26.60;37.90;;;;;;5050745;28;20429;-72
2022/05/14 13:15:05;;;;;;;9.73;4.33;;;26.70;38.00;;;;;;5055294;28;20205;-72
2022/05/14 13:17:35;;;;;;;4.03;2.00;;;26.90;37.20;;;;;;5059127;28;20183;-71
2022/05/14 13:20:08;;;;;;;3.50;2.00;;;26.70;37.20;;;;;;5058590;28;20414;-75